Terminal Aerodrome Forecast
Issued by NWS Shreveport, LA

Home | Current Version | Previous Version | Text Only | Print | Product List | Glossary On
Versions: 1 2 3 4 5 6 7 8 9 10 11 12 13 14 15
000
FTUS44 KSHV 221100 RRA
TAFTYR
TAF
KTYR 221141Z 2212/2312 04008KT P6SM FEW025 BKN110 BKN250
     FM221500 05010KT P6SM SCT110 SCT250
     FM221700 05009KT P6SM FEW250
     FM230100 06004KT P6SM FEW250=

USA.gov is the U.S. government's official web portal to all federal, state and local government web resources and services.